»·PEaware :: CN-TLP KSBP-KSBP

CN-TLP :: KSBP-KSBP

FLIGHT INFORMATION

Flight Status: Arrived
Operator: Privately registered:
Morocco
More flights under this callsign
Pilot: Ludovic C. (3276)
Aircraft: CESSNA 182 SKYLANE
(C182)
More flights by this aircraft type
Origin: KSBP San Luis Co Regl
United States
Destination: KSBP San Luis Co Regl
United States
More flights between these airports :: More routes between these airports
Route: +
File this flight plan on PilotEdge
Remarks:
Altitude:
(Current/Filed)
0ft
Speed:
(Current/Filed)
0kts
Departed: 07-May-18 02:52 PM
Arrived: 07-May-18 04:25 PM
Distance/Time
Traveled:
0nm/1:33
Distance/Time
To Go:
Arrived

Flight Plot

Page will automatically refresh every two minutes.


Map Options




Map Legend


Flown Route
Filed Route
Departure Airport
Arrival Airport
Navaid (VOR, NDB)
Fix

Horizontal Profiles

Position Reports

Time Latitude Longitude Heading Altitude Ground
Speed
07-May-18 14:51 35.244906 -120.652026 311 720ft 66kts
07-May-18 14:52 35.241862 -120.666270 223 1733ft 99kts
07-May-18 14:53 35.230873 -120.691256 268 2342ft 80kts
07-May-18 14:54 35.230939 -120.718884 284 2747ft 84kts
07-May-18 14:55 35.236391 -120.747386 297 3055ft 85kts
07-May-18 14:56 35.247192 -120.772028 328 3154ft 91kts
07-May-18 14:57 35.268879 -120.782776 359 2462ft 83kts
07-May-18 14:58 35.290199 -120.779366 359 1209ft 77kts
07-May-18 14:59 35.308561 -120.781904 328 1044ft 64kts
07-May-18 15:00 35.310771 -120.804524 268 1048ft 80kts
07-May-18 15:01 35.296919 -120.803442 85 909ft 115kts
07-May-18 15:02 35.296493 -120.777073 359 1060ft 74kts
07-May-18 15:03 35.306591 -120.782051 314 998ft 61kts
07-May-18 15:04 35.315166 -120.799016 270 1017ft 72kts
07-May-18 15:05 35.312007 -120.805073 159 761ft 121kts
07-May-18 15:06 35.307367 -120.788962 321 904ft 62kts
07-May-18 15:07 35.299764 -120.789387 45 925ft 82kts
07-May-18 15:08 35.307314 -120.798092 219 913ft 94kts
07-May-18 15:09 35.308067 -120.788055 335 890ft 65kts
07-May-18 15:10 35.299668 -120.789772 41 981ft 79kts
07-May-18 15:11 35.307880 -120.798586 217 875ft 96kts
07-May-18 15:12 35.308597 -120.788239 328 902ft 62kts
07-May-18 15:13 35.299763 -120.791866 70 993ft 93kts
07-May-18 15:14 35.309974 -120.795455 254 925ft 85kts
07-May-18 15:15 35.303647 -120.787159 353 953ft 66kts
07-May-18 15:16 35.300990 -120.797101 135 918ft 112kts
07-May-18 15:17 35.294757 -120.782929 306 948ft 71kts
07-May-18 15:18 35.308378 -120.798869 15 778ft 88kts
07-May-18 15:19 35.303534 -120.795998 323 915ft 49kts
07-May-18 15:20 35.299884 -120.790384 274 914ft 65kts
07-May-18 15:21 35.308018 -120.788304 129 951ft 114kts
07-May-18 15:22 35.307251 -120.797737 5 978ft 76kts
07-May-18 15:23 35.302286 -120.796516 310 920ft 73kts
07-May-18 15:24 35.300236 -120.790908 287 845ft 68kts
07-May-18 15:25 35.309440 -120.791912 114 956ft 100kts
07-May-18 15:26 35.307413 -120.799671 1 945ft 67kts
07-May-18 15:27 35.302000 -120.795264 313 977ft 52kts
07-May-18 15:28 35.316829 -120.798649 353 988ft 66kts
07-May-18 15:29 35.315378 -120.798092 135 899ft 122kts
07-May-18 15:30 35.296463 -120.792087 281 960ft 72kts
07-May-18 15:31 35.304481 -120.806724 351 1020ft 75kts
07-May-18 15:32 35.311046 -120.780578 71 971ft 99kts
07-May-18 15:33 35.296492 -120.782472 276 992ft 70kts
07-May-18 15:34 35.307359 -120.794865 338 997ft 67kts
07-May-18 15:35 35.298957 -120.782086 223 942ft 94kts
07-May-18 15:36 35.295411 -120.805423 315 1065ft 66kts
07-May-18 15:37 35.312474 -120.801465 79 1055ft 103kts
07-May-18 15:38 35.295884 -120.789864 293 929ft 76kts
07-May-18 15:39 35.296077 -120.804002 191 1150ft 109kts
07-May-18 15:40 35.292535 -120.788804 43 1195ft 67kts
07-May-18 15:41 35.309753 -120.785433 315 1076ft 61kts
07-May-18 15:42 35.309545 -120.807254 209 975ft 99kts
07-May-18 15:43 35.295129 -120.788944 29 1050ft 89kts
07-May-18 15:44 35.311493 -120.793410 295 890ft 76kts
07-May-18 15:45 35.301378 -120.801240 103 862ft 108kts
07-May-18 15:46 35.288925 -120.770295 98 1070ft 96kts
07-May-18 15:47 35.289689 -120.749531 199 946ft 105kts
07-May-18 15:48 35.284261 -120.727226 174 887ft 110kts
07-May-18 15:49 35.280888 -120.710084 31 1009ft 75kts
07-May-18 15:50 35.276602 -120.722914 2 941ft 76kts
07-May-18 15:51 35.281278 -120.727376 233 1068ft 88kts
07-May-18 15:52 35.289201 -120.734455 278 1068ft 74kts
07-May-18 15:53 35.289239 -120.741602 15 1073ft 75kts
07-May-18 15:54 35.291277 -120.754033 33 944ft 93kts
07-May-18 15:55 35.290934 -120.754813 239 998ft 96kts
07-May-18 15:56 35.297444 -120.754077 220 1059ft 89kts
07-May-18 15:57 35.296769 -120.766703 325 1275ft 49kts
07-May-18 15:58 35.304679 -120.779977 272 1986ft 73kts
07-May-18 15:59 35.303259 -120.785522 210 2156ft 108kts
07-May-18 16:00 35.299422 -120.783236 117 2129ft 98kts
07-May-18 16:01 35.294495 -120.785862 316 2161ft 58kts
07-May-18 16:02 35.300965 -120.778669 326 2235ft 49kts
07-May-18 16:03 35.303714 -120.775992 316 1963ft 48kts
07-May-18 16:04 35.306614 -120.784182 22 2377ft 60kts
07-May-18 16:05 35.301073 -120.781672 49 2365ft 101kts
07-May-18 16:06 35.294383 -120.779968 91 2223ft 112kts
07-May-18 16:07 35.300382 -120.782138 336 2294ft 74kts
07-May-18 16:08 35.296554 -120.778299 307 2215ft 62kts
07-May-18 16:09 35.295467 -120.778830 46 2177ft 66kts
07-May-18 16:10 35.291400 -120.775994 124 2311ft 78kts
07-May-18 16:11 35.297976 -120.781013 174 2530ft 99kts
07-May-18 16:12 35.293084 -120.778166 167 3026ft 94kts
07-May-18 16:13 35.294080 -120.776370 325 3302ft 73kts
07-May-18 16:14 35.292281 -120.757459 118 3760ft 100kts
07-May-18 16:15 35.300806 -120.749582 321 3300ft 70kts
07-May-18 16:16 35.307883 -120.773476 285 2849ft 78kts
07-May-18 16:17 35.290852 -120.758208 110 2000ft 102kts
07-May-18 16:18 35.274642 -120.731870 124 1594ft 98kts
07-May-18 16:19 35.263056 -120.713142 125 1438ft 93kts
07-May-18 16:20 35.251885 -120.690932 124 1246ft 91kts
07-May-18 16:21 35.235053 -120.666511 135 1276ft 100kts
07-May-18 16:22 35.217509 -120.643341 125 1160ft 94kts
07-May-18 16:23 35.217317 -120.619923 38 972ft 72kts
07-May-18 16:24 35.227728 -120.624105 303 656ft 51kts
07-May-18 16:25 35.235105 -120.637141 301 215ft 18kts
07-May-18 16:26 35.237802 -120.640036 328 215ft 10kts
07-May-18 16:27 35.238008 -120.640299 308 215ft 7kts
07-May-18 16:27 35.238302 -120.638279 79 215ft 9kts
07-May-18 16:28 35.238805 -120.637689 312 215ft 1kts
07-May-18 16:29 35.238517 -120.637799 272 215ft 0kts
07-May-18 16:30 35.238517 -120.637804 271 215ft 0kts
07-May-18 16:31 35.238517 -120.637804 271 215ft 0kts

Navigation Log

Ident Type
1. KSBP Airport
2. KSBP Airport